createdAt,value
2023-05-04T00:00:55.027Z,98632.50
2023-05-04T00:01:58.028Z,98628.87
2023-05-04T00:03:01.157Z,98636.91
2023-05-04T00:04:04.365Z,98634.81
2023-05-04T00:05:08.598Z,98629.13
2023-05-04T00:06:11.761Z,98627.72
2023-05-04T00:07:14.762Z,98633.47
2023-05-04T00:08:18.387Z,98632.50
2023-05-04T00:09:21.663Z,98625.22
2023-05-04T00:10:25.184Z,98623.88
2023-05-04T00:11:28.110Z,98623.59
2023-05-04T00:12:30.981Z,98622.31
2023-05-04T00:13:33.878Z,98616.28
2023-05-04T00:14:37.490Z,98619.88
2023-05-04T00:15:40.559Z,98618.34
2023-05-04T00:16:44.387Z,98615.41
2023-05-04T00:17:48.061Z,98614.28
2023-05-04T00:18:53.083Z,98606.63
2023-05-04T00:19:56.303Z,98618.81
2023-05-04T00:20:59.287Z,98609.81
2023-05-04T00:22:02.829Z,98618.31
2023-05-04T00:23:05.739Z,98606.44
2023-05-04T00:24:08.636Z,98605.19
2023-05-04T00:25:11.916Z,98605.09
2023-05-04T00:26:14.927Z,98603.22
2023-05-04T00:27:17.884Z,98606.72
2023-05-04T00:28:21.016Z,98611.91
2023-05-04T00:29:24.312Z,98605.59
2023-05-04T00:30:27.419Z,98605.59
2023-05-04T00:31:30.739Z,98607.81
2023-05-04T00:32:33.713Z,98605.87
2023-05-04T00:33:36.809Z,98609.13
2023-05-04T00:34:39.981Z,98608.31
2023-05-04T00:35:42.985Z,98605.59
2023-05-04T00:36:46.641Z,98606.84
2023-05-04T00:37:49.635Z,98606.63
2023-05-04T00:38:54.962Z,98602.03
2023-05-04T00:39:58.245Z,98605.47
2023-05-04T00:41:01.172Z,98605.91
2023-05-04T00:42:04.216Z,98605.47
2023-05-04T00:43:07.165Z,98602.62
2023-05-04T00:44:10.154Z,98604.19
2023-05-04T00:45:14.887Z,98603.63
2023-05-04T00:46:18.125Z,98600.44
2023-05-04T00:47:22.153Z,98599.06
2023-05-04T00:48:25.364Z,98601.13
2023-05-04T00:49:29.820Z,98597.81
2023-05-04T00:50:33.310Z,98594.97
2023-05-04T00:51:37.146Z,98592.25
2023-05-04T00:52:42.238Z,98593.91
2023-05-04T00:53:45.669Z,98590.72
2023-05-04T00:54:49.096Z,98587.59
2023-05-04T00:55:52.200Z,98595.88
2023-05-04T00:56:55.638Z,98599.72
2023-05-04T00:57:58.769Z,98600.22
2023-05-04T00:59:02.911Z,98598.28
2023-05-04T01:00:07.055Z,98600.44
2023-05-04T01:01:10.800Z,98596.66
2023-05-04T01:02:13.851Z,98600.56
2023-05-04T01:03:16.924Z,98597.50
2023-05-04T01:04:20.425Z,98595.91
2023-05-04T01:05:26.969Z,98597.75
2023-05-04T01:06:45.598Z,98597.50
2023-05-04T01:08:12.748Z,98607.75
2023-05-04T01:09:17.477Z,98596.41
2023-05-04T01:10:47.480Z,98598.66
2023-05-04T01:12:06.987Z,98601.59
2023-05-04T01:13:14.611Z,98603.75
2023-05-04T01:14:20.716Z,98599.84
2023-05-04T01:15:24.218Z,98596.34
2023-05-04T01:16:27.146Z,98600.06
2023-05-04T01:17:30.245Z,98598.97
2023-05-04T01:18:34.740Z,98598.69
2023-05-04T01:19:37.737Z,98599.09
2023-05-04T01:20:40.801Z,98592.56
2023-05-04T01:21:43.773Z,98601.09
2023-05-04T01:22:46.920Z,98598.47
2023-05-04T01:23:50.777Z,98596.00
2023-05-04T01:24:53.901Z,98598.78
2023-05-04T01:26:08.629Z,98599.84
2023-05-04T01:27:36.582Z,98594.28
2023-05-04T01:28:49.829Z,98591.94
2023-05-04T01:30:30.172Z,98594.28
2023-05-04T01:31:35.632Z,98589.63
2023-05-04T01:32:42.107Z,98597.25
2023-05-04T01:33:45.757Z,98587.47
2023-05-04T01:34:48.788Z,98592.63
2023-05-04T01:35:52.066Z,98591.56
2023-05-04T01:36:55.276Z,98595.75
2023-05-04T01:37:59.713Z,98591.66
2023-05-04T01:39:03.972Z,98592.94
2023-05-04T01:40:07.734Z,98593.13
2023-05-04T01:41:11.263Z,98587.38
2023-05-04T01:42:14.286Z,98590.09
2023-05-04T01:43:17.189Z,98587.69
2023-05-04T01:44:20.046Z,98589.63
2023-05-04T01:45:23.029Z,98589.84
2023-05-04T01:46:25.998Z,98590.97
2023-05-04T01:47:29.142Z,98593.53
2023-05-04T01:48:32.546Z,98590.00
2023-05-04T01:49:35.622Z,98591.28
2023-05-04T01:50:39.244Z,98586.88
2023-05-04T01:51:42.184Z,98590.75
2023-05-04T01:52:45.062Z,98591.75
2023-05-04T01:53:47.927Z,98585.53
2023-05-04T01:54:50.851Z,98585.72
2023-05-04T01:55:54.030Z,98593.53
2023-05-04T01:56:57.160Z,98592.25
2023-05-04T01:58:00.212Z,98594.69
2023-05-04T01:59:03.405Z,98592.88
2023-05-04T02:00:07.323Z,98592.19
2023-05-04T02:01:12.075Z,98595.00
2023-05-04T02:02:14.980Z,98594.09
2023-05-04T02:03:18.139Z,98588.84
2023-05-04T02:04:21.095Z,98595.19
2023-05-04T02:05:23.993Z,98593.41
2023-05-04T02:06:27.486Z,98594.06
2023-05-04T02:07:30.931Z,98595.56
2023-05-04T02:08:34.306Z,98593.28
2023-05-04T02:09:37.377Z,98599.69
2023-05-04T02:10:40.382Z,98595.22
2023-05-04T02:11:43.384Z,98591.25
2023-05-04T02:12:46.581Z,98594.16
2023-05-04T02:13:49.671Z,98596.78
2023-05-04T02:14:52.622Z,98596.41
2023-05-04T02:15:55.940Z,98586.19
2023-05-04T02:16:58.816Z,98588.34
2023-05-04T02:18:02.059Z,98587.84
2023-05-04T02:19:05.047Z,98589.50
2023-05-04T02:20:08.750Z,98590.75
2023-05-04T02:21:11.764Z,98587.00
2023-05-04T02:22:14.857Z,98591.75
2023-05-04T02:23:17.733Z,98583.87
2023-05-04T02:24:20.778Z,98589.75
2023-05-04T02:25:24.060Z,98582.13
2023-05-04T02:26:27.180Z,98578.53
2023-05-04T02:27:30.636Z,98583.03
2023-05-04T02:28:34.083Z,98577.97
2023-05-04T02:29:38.642Z,98583.28
2023-05-04T02:30:42.545Z,98578.03
2023-05-04T02:31:45.573Z,98575.91
2023-05-04T02:32:48.633Z,98586.81
2023-05-04T02:33:52.883Z,98586.72
2023-05-04T02:34:56.388Z,98579.00
2023-05-04T02:35:59.344Z,98588.03
2023-05-04T02:37:03.276Z,98578.88
2023-05-04T02:38:07.177Z,98579.59
2023-05-04T02:39:11.431Z,98580.34
2023-05-04T02:40:14.462Z,98588.22
2023-05-04T02:41:17.700Z,98581.75
2023-05-04T02:42:21.676Z,98584.37
2023-05-04T02:43:24.800Z,98577.66
2023-05-04T02:44:27.701Z,98589.09
2023-05-04T02:45:30.659Z,98584.63
2023-05-04T02:46:33.766Z,98585.50
2023-05-04T02:47:37.398Z,98582.87
2023-05-04T02:48:41.634Z,98588.75
2023-05-04T02:49:44.544Z,98583.13
2023-05-04T02:50:47.900Z,98582.50
2023-05-04T02:51:51.060Z,98588.44
2023-05-04T02:52:53.954Z,98580.31
2023-05-04T02:53:56.801Z,98589.03
2023-05-04T02:55:00.190Z,98584.19
2023-05-04T02:56:03.024Z,98587.59
2023-05-04T02:57:07.363Z,98581.53
2023-05-04T02:58:10.213Z,98582.00
2023-05-04T02:59:13.804Z,98589.53
2023-05-04T03:00:17.246Z,98592.03
2023-05-04T03:01:20.452Z,98589.66
2023-05-04T03:02:23.425Z,98593.38
2023-05-04T03:03:26.696Z,98577.88
2023-05-04T03:04:29.814Z,98589.09
2023-05-04T03:05:32.825Z,98589.28
2023-05-04T03:06:36.538Z,98587.69
2023-05-04T03:07:39.619Z,98585.97
2023-05-04T03:08:43.710Z,98585.47
2023-05-04T03:09:48.250Z,98590.59
2023-05-04T03:10:51.257Z,98596.97
2023-05-04T03:11:54.309Z,98598.13
2023-05-04T03:12:57.262Z,98591.31
2023-05-04T03:14:00.134Z,98605.31
2023-05-04T03:15:03.561Z,98596.06
2023-05-04T03:16:06.973Z,98600.78
2023-05-04T03:17:10.064Z,98598.31
2023-05-04T03:18:13.146Z,98597.75
2023-05-04T03:19:19.505Z,98602.25
2023-05-04T03:20:22.531Z,98601.19
2023-05-04T03:21:25.738Z,98603.00
2023-05-04T03:22:28.782Z,98594.00
2023-05-04T03:23:31.840Z,98608.41
2023-05-04T03:24:34.887Z,98596.13
2023-05-04T03:25:38.135Z,98599.31
2023-05-04T03:26:41.710Z,98603.78
2023-05-04T03:27:44.935Z,98608.69
2023-05-04T03:28:50.666Z,98607.13
2023-05-04T03:29:53.621Z,98609.38
2023-05-04T03:30:56.637Z,98612.22
2023-05-04T03:31:59.605Z,98618.78
2023-05-04T03:33:02.536Z,98612.00
2023-05-04T03:34:05.684Z,98612.19
2023-05-04T03:35:09.573Z,98619.97
2023-05-04T03:36:12.668Z,98613.25
2023-05-04T03:37:16.280Z,98608.00
2023-05-04T03:38:22.268Z,98609.00
2023-05-04T03:39:25.535Z,98604.31
2023-05-04T03:40:28.435Z,98609.81
2023-05-04T03:41:31.790Z,98609.50
2023-05-04T03:42:34.586Z,98618.53
2023-05-04T03:43:37.540Z,98613.94
2023-05-04T03:44:41.116Z,98612.91
2023-05-04T03:45:44.179Z,98613.94
2023-05-04T03:46:47.242Z,98611.31
2023-05-04T03:47:50.375Z,98610.28
2023-05-04T03:48:57.541Z,98612.03
2023-05-04T03:50:00.558Z,98610.50
2023-05-04T03:51:04.116Z,98607.75
2023-05-04T03:52:07.024Z,98608.75
2023-05-04T03:53:10.044Z,98614.56
2023-05-04T03:54:12.953Z,98619.34
2023-05-04T03:55:16.366Z,98626.66
2023-05-04T03:56:19.300Z,98628.16
2023-05-04T03:57:24.637Z,98622.37
2023-05-04T03:58:31.575Z,98622.63
2023-05-04T03:59:34.970Z,98624.13
2023-05-04T04:00:37.889Z,98619.09
2023-05-04T04:01:40.963Z,98618.06
2023-05-04T04:02:43.892Z,98621.47
2023-05-04T04:03:47.144Z,98614.78
2023-05-04T04:04:50.138Z,98612.69
2023-05-04T04:05:53.120Z,98611.56
2023-05-04T04:06:56.206Z,98612.97
2023-05-04T04:07:59.046Z,98618.38
2023-05-04T04:09:04.453Z,98618.53
2023-05-04T04:10:08.089Z,98614.22
2023-05-04T04:11:11.291Z,98610.12
2023-05-04T04:12:16.476Z,98614.31
2023-05-04T04:13:19.484Z,98615.25
2023-05-04T04:14:22.458Z,98614.37
2023-05-04T04:15:25.419Z,98631.03
2023-05-04T04:16:28.429Z,98622.37
2023-05-04T04:17:31.615Z,98625.56
2023-05-04T04:18:39.738Z,98625.88
2023-05-04T04:19:43.192Z,98624.94
2023-05-04T04:20:46.349Z,98628.00
2023-05-04T04:21:49.451Z,98625.38
2023-05-04T04:22:54.566Z,98620.13
2023-05-04T04:23:57.481Z,98613.94
2023-05-04T04:25:00.606Z,98619.25
2023-05-04T04:26:06.431Z,98628.50
2023-05-04T04:27:09.420Z,98616.88
2023-05-04T04:28:13.685Z,98622.03
2023-05-04T04:29:17.040Z,98622.37
2023-05-04T04:30:20.001Z,98619.25
2023-05-04T04:31:23.575Z,98619.69
2023-05-04T04:32:26.801Z,98618.53
2023-05-04T04:33:30.014Z,98628.22
2023-05-04T04:34:33.208Z,98626.47
2023-05-04T04:35:36.254Z,98615.34
2023-05-04T04:36:39.377Z,98624.13
2023-05-04T04:37:42.373Z,98619.31
2023-05-04T04:38:47.898Z,98625.19
2023-05-04T04:39:51.217Z,98617.59
2023-05-04T04:40:54.140Z,98625.09
2023-05-04T04:41:57.155Z,98628.03
2023-05-04T04:43:00.125Z,98627.06
2023-05-04T04:44:03.476Z,98633.78
2023-05-04T04:45:07.257Z,98633.41
2023-05-04T04:46:10.881Z,98625.09
2023-05-04T04:47:14.067Z,98633.16
2023-05-04T04:48:17.401Z,98630.75
2023-05-04T04:49:20.618Z,98629.97
2023-05-04T04:50:23.471Z,98628.53
2023-05-04T04:51:26.808Z,98626.75
2023-05-04T04:52:29.623Z,98629.37
2023-05-04T04:53:32.683Z,98633.47
2023-05-04T04:54:35.517Z,98633.91
2023-05-04T04:55:38.381Z,98631.38
2023-05-04T04:56:42.836Z,98632.53
2023-05-04T04:57:45.902Z,98632.44
2023-05-04T04:58:51.140Z,98631.38
2023-05-04T04:59:54.074Z,98633.12
2023-05-04T05:00:58.718Z,98630.22
2023-05-04T05:02:02.143Z,98631.78
2023-05-04T05:03:05.197Z,98629.72
2023-05-04T05:04:08.351Z,98628.06
2023-05-04T05:05:11.492Z,98629.75
2023-05-04T05:06:14.516Z,98636.34
2023-05-04T05:07:17.321Z,98629.53
2023-05-04T05:08:21.225Z,98631.69
2023-05-04T05:09:28.992Z,98635.19
2023-05-04T05:10:31.970Z,98628.94
2023-05-04T05:11:34.852Z,98633.03
2023-05-04T05:12:37.847Z,98626.88
2023-05-04T05:13:40.799Z,98632.62
2023-05-04T05:14:44.174Z,98624.38
2023-05-04T05:15:47.141Z,98628.81
2023-05-04T05:16:50.322Z,98633.31
2023-05-04T05:17:53.408Z,98629.22
2023-05-04T05:18:57.727Z,98626.09
2023-05-04T05:20:00.638Z,98634.09
2023-05-04T05:21:03.582Z,98639.53
2023-05-04T05:22:06.448Z,98646.44
2023-05-04T05:23:09.692Z,98642.75
2023-05-04T05:24:12.551Z,98636.31
2023-05-04T05:25:15.569Z,98638.84
2023-05-04T05:26:18.718Z,98643.31
2023-05-04T05:27:21.951Z,98640.59
2023-05-04T05:28:27.676Z,98646.31
2023-05-04T05:29:31.881Z,98643.22
2023-05-04T05:30:34.868Z,98638.44
2023-05-04T05:31:37.816Z,98645.44
2023-05-04T05:32:40.907Z,98646.13
2023-05-04T05:33:43.908Z,98649.53
2023-05-04T05:34:46.867Z,98646.97
2023-05-04T05:35:50.089Z,98642.28
2023-05-04T05:36:53.574Z,98643.59
2023-05-04T05:37:56.610Z,98648.94
2023-05-04T05:38:59.976Z,98646.41
2023-05-04T05:40:03.295Z,98649.34
2023-05-04T05:41:06.521Z,98651.87
2023-05-04T05:42:09.569Z,98650.22
2023-05-04T05:43:12.485Z,98653.31
2023-05-04T05:44:15.324Z,98647.75
2023-05-04T05:45:18.597Z,98653.31
2023-05-04T05:46:23.095Z,98650.28
2023-05-04T05:47:26.155Z,98646.28
2023-05-04T05:48:29.274Z,98643.25
2023-05-04T05:49:32.677Z,98648.22
2023-05-04T05:50:35.569Z,98645.28
2023-05-04T05:51:38.401Z,98644.41
2023-05-04T05:52:41.396Z,98646.44
2023-05-04T05:53:45.208Z,98646.28
2023-05-04T05:54:48.237Z,98644.16
2023-05-04T05:55:51.358Z,98649.94
2023-05-04T05:56:54.381Z,98648.66
2023-05-04T05:57:57.431Z,98648.81
2023-05-04T05:59:01.191Z,98656.19
2023-05-04T06:00:06.467Z,98649.31
2023-05-04T06:01:09.605Z,98651.69
2023-05-04T06:02:15.160Z,98651.75
2023-05-04T06:03:18.314Z,98653.31
2023-05-04T06:04:21.527Z,98652.78
2023-05-04T06:05:24.540Z,98649.41
2023-05-04T06:07:30.536Z,98652.53
2023-05-04T06:08:33.880Z,98653.19
2023-05-04T06:09:37.337Z,98648.47
2023-05-04T06:10:40.550Z,98651.56
2023-05-04T06:11:43.826Z,98649.12
2023-05-04T06:12:46.736Z,98652.16
2023-05-04T06:13:49.702Z,98649.38
2023-05-04T06:14:52.612Z,98654.19
2023-05-04T06:15:55.695Z,98651.69
2023-05-04T06:16:58.690Z,98658.25
2023-05-04T06:18:01.703Z,98650.16
2023-05-04T06:19:06.006Z,98656.59
2023-05-04T06:20:09.577Z,98654.75
2023-05-04T06:21:14.833Z,98656.91
2023-05-04T06:22:17.853Z,98656.97
2023-05-04T06:23:20.746Z,98657.13
2023-05-04T06:24:25.529Z,98660.91
2023-05-04T06:25:28.471Z,98667.72
2023-05-04T06:26:31.417Z,98669.28
2023-05-04T06:27:34.689Z,98666.87
2023-05-04T06:28:41.420Z,98671.59
2023-05-04T06:29:44.409Z,98668.28
2023-05-04T06:30:48.662Z,98673.31
2023-05-04T06:31:52.342Z,98680.16
2023-05-04T06:32:55.729Z,98679.09
2023-05-04T06:33:58.804Z,98673.34
2023-05-04T06:35:02.910Z,98666.84
2023-05-04T06:36:06.649Z,98682.22
2023-05-04T06:37:09.884Z,98678.50
2023-05-04T06:38:13.511Z,98675.69
2023-05-04T06:39:16.699Z,98679.00
2023-05-04T06:40:19.691Z,98672.47
2023-05-04T06:41:22.818Z,98667.78
2023-05-04T06:42:29.455Z,98673.25
2023-05-04T06:43:33.298Z,98672.13
2023-05-04T06:44:39.721Z,98667.72
2023-05-04T06:45:42.597Z,98671.16
2023-05-04T06:46:46.142Z,98672.88
2023-05-04T06:47:49.228Z,98672.88
2023-05-04T06:48:54.432Z,98671.91
2023-05-04T06:49:58.090Z,98670.44
2023-05-04T06:51:02.234Z,98669.81
2023-05-04T06:52:06.368Z,98673.03
2023-05-04T06:53:11.053Z,98675.75
2023-05-04T06:54:14.050Z,98679.12
2023-05-04T06:55:16.928Z,98676.69
2023-05-04T06:56:19.947Z,98678.88
2023-05-04T06:57:22.864Z,98677.72
2023-05-04T06:58:26.818Z,98677.03
2023-05-04T06:59:30.147Z,98676.69
2023-05-04T07:00:33.321Z,98678.38
2023-05-04T07:01:36.418Z,98678.53
2023-05-04T07:02:39.415Z,98683.91
2023-05-04T07:03:43.190Z,98688.63
2023-05-04T07:04:46.500Z,98678.41
2023-05-04T07:05:51.043Z,98678.44
2023-05-04T07:06:53.994Z,98682.06
2023-05-04T07:07:59.389Z,98677.53
2023-05-04T07:09:03.269Z,98685.84
2023-05-04T07:10:07.038Z,98687.06
2023-05-04T07:11:17.086Z,98689.59
2023-05-04T07:12:19.986Z,98687.41
2023-05-04T07:13:23.062Z,98689.56
2023-05-04T07:14:26.161Z,98682.25
2023-05-04T07:15:29.350Z,98680.69
2023-05-04T07:16:33.233Z,98680.31
2023-05-04T07:17:39.755Z,98668.22
2023-05-04T07:18:45.723Z,98675.75
2023-05-04T07:19:52.732Z,98681.09
2023-05-04T07:21:01.850Z,98688.91
2023-05-04T07:22:14.288Z,98681.47
2023-05-04T07:23:17.925Z,98686.12
2023-05-04T07:24:21.061Z,98682.25
2023-05-04T07:25:27.913Z,98685.31
2023-05-04T07:26:30.818Z,98694.59
2023-05-04T07:27:35.556Z,98693.59
2023-05-04T07:28:44.069Z,98682.69
2023-05-04T07:29:47.430Z,98686.66
2023-05-04T07:30:50.382Z,98685.28
2023-05-04T07:31:53.453Z,98682.22
2023-05-04T07:32:56.712Z,98682.22
2023-05-04T07:33:59.758Z,98691.41
2023-05-04T07:35:03.011Z,98691.19
2023-05-04T07:36:07.025Z,98686.09
2023-05-04T07:37:10.083Z,98693.84
2023-05-04T07:38:13.188Z,98693.13
2023-05-04T07:39:16.989Z,98692.81
2023-05-04T07:40:20.536Z,98688.34
2023-05-04T07:41:24.194Z,98689.94
2023-05-04T07:42:29.267Z,98687.59
2023-05-04T07:43:32.323Z,98689.59
2023-05-04T07:44:35.322Z,98691.16
2023-05-04T07:45:38.149Z,98687.84
2023-05-04T07:46:41.046Z,98686.69
2023-05-04T07:47:44.160Z,98690.13
2023-05-04T07:48:47.434Z,98691.34
2023-05-04T07:49:50.535Z,98687.47
2023-05-04T07:50:54.065Z,98683.78
2023-05-04T07:51:57.288Z,98685.94
2023-05-04T07:53:00.302Z,98687.12
2023-05-04T07:54:03.622Z,98682.63
2023-05-04T07:55:07.950Z,98685.62
2023-05-04T07:56:12.987Z,98686.81
2023-05-04T07:57:15.828Z,98685.44
2023-05-04T07:58:18.847Z,98688.91
2023-05-04T07:59:22.769Z,98678.44
2023-05-04T08:00:26.685Z,98687.09
2023-05-04T08:01:30.288Z,98679.81
2023-05-04T08:02:33.543Z,98691.50
2023-05-04T08:03:36.798Z,98688.22
2023-05-04T08:04:39.968Z,98684.47
2023-05-04T08:05:43.038Z,98679.72
2023-05-04T08:06:46.759Z,98679.03
2023-05-04T08:07:49.632Z,98684.72
2023-05-04T08:08:53.083Z,98689.78
2023-05-04T08:09:57.610Z,98694.66
2023-05-04T08:11:15.847Z,98682.66
2023-05-04T08:12:21.794Z,98691.03
2023-05-04T08:13:24.738Z,98682.13
2023-05-04T08:14:27.794Z,98684.97
2023-05-04T08:15:31.005Z,98689.87
2023-05-04T08:16:34.094Z,98687.72
2023-05-04T08:17:39.543Z,98685.91
2023-05-04T08:18:43.702Z,98688.41
2023-05-04T08:19:46.868Z,98695.41
2023-05-04T08:20:49.736Z,98688.31
2023-05-04T08:21:53.393Z,98694.56
2023-05-04T08:22:56.289Z,98690.31
2023-05-04T08:23:59.185Z,98691.13
2023-05-04T08:25:02.380Z,98690.22
2023-05-04T08:26:05.931Z,98700.66
2023-05-04T08:27:09.889Z,98704.69
2023-05-04T08:28:12.867Z,98704.34
2023-05-04T08:29:15.889Z,98702.91
2023-05-04T08:30:18.948Z,98707.63
2023-05-04T08:31:22.414Z,98706.13
2023-05-04T08:32:25.326Z,98706.94
2023-05-04T08:33:28.299Z,98701.56
2023-05-04T08:34:31.247Z,98707.53
2023-05-04T08:35:34.361Z,98709.72
2023-05-04T08:36:37.214Z,98701.50
2023-05-04T08:37:40.225Z,98708.62
2023-05-04T08:38:44.848Z,98704.72
2023-05-04T08:39:48.540Z,98709.06
2023-05-04T08:40:51.641Z,98708.78
2023-05-04T08:41:55.100Z,98710.34
2023-05-04T08:42:58.471Z,98708.97
2023-05-04T08:44:01.472Z,98709.34
2023-05-04T08:45:04.994Z,98705.31
2023-05-04T08:46:09.129Z,98704.97
2023-05-04T08:47:12.632Z,98711.81
2023-05-04T08:48:15.572Z,98712.16
2023-05-04T08:49:23.458Z,98718.03
2023-05-04T08:50:26.482Z,98709.88
2023-05-04T08:51:31.845Z,98710.91
2023-05-04T08:52:38.216Z,98709.97
2023-05-04T08:53:46.261Z,98710.09
2023-05-04T08:54:52.512Z,98711.66
2023-05-04T08:56:04.797Z,98709.06
2023-05-04T08:57:08.018Z,98710.91
2023-05-04T08:58:13.162Z,98710.59
2023-05-04T08:59:22.179Z,98717.22
2023-05-04T09:00:25.412Z,98708.59
2023-05-04T09:01:30.319Z,98712.59
2023-05-04T09:02:33.998Z,98708.97
2023-05-04T09:03:37.852Z,98706.69
2023-05-04T09:04:43.693Z,98703.53
2023-05-04T09:05:46.835Z,98701.81
2023-05-04T09:06:50.299Z,98704.47
2023-05-04T09:07:53.703Z,98701.53
2023-05-04T09:08:57.212Z,98704.09
2023-05-04T09:10:01.129Z,98707.41
2023-05-04T09:11:05.032Z,98705.91
2023-05-04T09:12:08.930Z,98703.63
2023-05-04T09:13:12.480Z,98705.84
2023-05-04T09:14:15.665Z,98709.19
2023-05-04T09:15:20.505Z,98698.94
2023-05-04T09:16:23.826Z,98701.03
2023-05-04T09:17:29.598Z,98702.03
2023-05-04T09:18:44.424Z,98699.63
2023-05-04T09:19:58.220Z,98696.94
2023-05-04T09:21:01.272Z,98704.44
2023-05-04T09:22:15.727Z,98700.25
2023-05-04T09:23:19.286Z,98704.56
2023-05-04T09:24:29.256Z,98711.13
2023-05-04T09:25:32.413Z,98709.16
2023-05-04T09:26:36.333Z,98701.53
2023-05-04T09:27:41.610Z,98702.28
2023-05-04T09:28:45.377Z,98703.66
2023-05-04T09:29:54.901Z,98695.53
2023-05-04T09:31:01.056Z,98700.50
2023-05-04T09:32:04.965Z,98699.50
2023-05-04T09:33:08.077Z,98710.19
2023-05-04T09:34:11.119Z,98702.41
2023-05-04T09:35:29.263Z,98701.56
2023-05-04T09:36:35.875Z,98704.69
2023-05-04T09:37:49.037Z,98695.09
2023-05-04T09:38:53.704Z,98698.97
2023-05-04T09:39:59.011Z,98696.63
2023-05-04T09:41:02.148Z,98702.41
2023-05-04T09:42:06.048Z,98703.97
2023-05-04T09:43:09.621Z,98693.03
2023-05-04T09:44:23.250Z,98696.06
2023-05-04T09:45:26.178Z,98704.53
2023-05-04T09:46:29.890Z,98696.44
2023-05-04T09:47:40.803Z,98700.50
2023-05-04T09:48:54.201Z,98694.03
2023-05-04T09:49:57.462Z,98690.66
2023-05-04T09:51:03.668Z,98700.66
2023-05-04T09:52:07.326Z,98701.97
2023-05-04T09:53:10.843Z,98696.38
2023-05-04T09:54:16.526Z,98701.41
2023-05-04T09:55:20.684Z,98690.69
2023-05-04T09:56:49.415Z,98697.50
2023-05-04T09:57:52.316Z,98696.00
2023-05-04T09:58:59.985Z,98693.62
2023-05-04T10:00:04.742Z,98683.25
2023-05-04T10:01:09.938Z,98694.22
2023-05-04T10:02:22.630Z,98691.88
2023-05-04T10:03:27.935Z,98690.25
2023-05-04T10:04:34.233Z,98684.09
2023-05-04T10:05:40.162Z,98685.31
2023-05-04T10:06:43.599Z,98679.91
2023-05-04T10:07:47.040Z,98677.66
2023-05-04T10:08:51.707Z,98671.81
2023-05-04T10:09:56.463Z,98668.81
2023-05-04T10:10:59.558Z,98675.44
2023-05-04T10:12:06.704Z,98673.00
2023-05-04T10:13:10.241Z,98665.63
2023-05-04T10:14:13.607Z,98667.16
2023-05-04T10:15:17.876Z,98666.87
2023-05-04T10:16:32.350Z,98674.06
2023-05-04T10:17:59.526Z,98667.72
2023-05-04T10:19:31.502Z,98667.44
2023-05-04T10:20:54.193Z,98667.94
2023-05-04T10:22:12.744Z,98668.47
2023-05-04T10:23:23.847Z,98671.50
2023-05-04T10:24:50.514Z,98671.16
2023-05-04T10:26:06.480Z,98666.78
2023-05-04T10:27:12.397Z,98664.00
2023-05-04T10:28:31.793Z,98664.38
2023-05-04T10:29:35.911Z,98664.31
2023-05-04T10:30:40.425Z,98660.06
2023-05-04T10:31:44.340Z,98656.12
2023-05-04T10:32:55.949Z,98655.12
2023-05-04T10:33:58.978Z,98652.97
2023-05-04T10:35:10.338Z,98656.09
2023-05-04T10:36:13.716Z,98648.84
2023-05-04T10:37:19.152Z,98654.31
2023-05-04T10:38:37.206Z,98653.50
2023-05-04T10:39:40.235Z,98649.63
2023-05-04T10:40:43.285Z,98653.69
2023-05-04T10:42:00.339Z,98646.94
2023-05-04T10:43:04.853Z,98651.56
2023-05-04T10:44:10.498Z,98643.59
2023-05-04T10:45:13.968Z,98638.56
2023-05-04T10:46:24.246Z,98643.13
2023-05-04T10:47:40.493Z,98651.66
2023-05-04T10:48:43.641Z,98633.19
2023-05-04T10:50:00.623Z,98643.87
2023-05-04T10:51:04.768Z,98643.41
2023-05-04T10:52:13.101Z,98637.91
2023-05-04T10:53:17.940Z,98640.16
2023-05-04T10:54:20.906Z,98638.28
2023-05-04T10:55:24.228Z,98641.44
2023-05-04T10:56:28.780Z,98643.09
2023-05-04T10:57:31.783Z,98633.19
2023-05-04T10:58:35.134Z,98635.00
2023-05-04T10:59:40.329Z,98631.03
2023-05-04T11:00:45.641Z,98636.47
2023-05-04T11:01:48.853Z,98632.69
2023-05-04T11:02:52.694Z,98636.81
2023-05-04T11:03:55.734Z,98636.28
2023-05-04T11:05:08.756Z,98636.50
2023-05-04T11:06:25.673Z,98638.41
2023-05-04T11:07:39.514Z,98636.56
2023-05-04T11:08:43.545Z,98625.66
2023-05-04T11:09:46.400Z,98633.12
2023-05-04T11:11:01.170Z,98636.97
2023-05-04T11:12:04.290Z,98626.94
2023-05-04T11:13:12.400Z,98626.94
2023-05-04T11:14:43.420Z,98630.00
2023-05-04T11:15:52.381Z,98627.78
2023-05-04T11:17:16.085Z,98622.13
2023-05-04T11:18:32.632Z,98627.13
2023-05-04T11:19:36.109Z,98622.47
2023-05-04T11:20:39.435Z,98625.41
2023-05-04T11:21:42.473Z,98614.31
2023-05-04T11:22:45.448Z,98624.19
2023-05-04T11:23:57.296Z,98616.13
2023-05-04T11:25:00.237Z,98616.56
2023-05-04T11:26:08.882Z,98616.47
2023-05-04T11:27:29.334Z,98612.97
2023-05-04T11:28:36.379Z,98617.69
2023-05-04T11:29:39.630Z,98615.44
2023-05-04T11:30:44.824Z,98615.63
2023-05-04T11:31:55.314Z,98607.72
2023-05-04T11:33:00.855Z,98605.94
2023-05-04T11:34:03.862Z,98604.91
2023-05-04T11:35:15.896Z,98610.03
2023-05-04T11:36:19.988Z,98602.38
2023-05-04T11:37:23.593Z,98607.44
2023-05-04T11:38:30.095Z,98608.97
2023-05-04T11:39:33.839Z,98605.34
2023-05-04T11:40:37.737Z,98607.81
2023-05-04T11:41:41.154Z,98608.00
2023-05-04T11:42:45.344Z,98603.94
2023-05-04T11:43:48.561Z,98602.03
2023-05-04T11:44:52.748Z,98600.63
2023-05-04T11:45:58.312Z,98590.44
2023-05-04T11:47:01.586Z,98594.31
2023-05-04T11:48:05.636Z,98597.13
2023-05-04T11:49:10.263Z,98599.50
2023-05-04T11:50:14.736Z,98597.03
2023-05-04T11:51:19.411Z,98593.56
2023-05-04T11:52:26.091Z,98597.75
2023-05-04T11:53:37.733Z,98586.38
2023-05-04T11:54:40.627Z,98592.09
2023-05-04T11:55:43.712Z,98592.28
2023-05-04T11:56:46.906Z,98592.44
2023-05-04T11:58:04.296Z,98596.03
2023-05-04T11:59:10.981Z,98588.69
2023-05-04T12:00:14.583Z,98593.00
2023-05-04T12:01:18.210Z,98590.87
2023-05-04T12:02:21.459Z,98590.69
2023-05-04T12:03:43.889Z,98589.84
2023-05-04T12:04:55.729Z,98584.41
2023-05-04T12:05:59.646Z,98582.84
2023-05-04T12:07:08.543Z,98577.09
2023-05-04T12:08:26.655Z,98582.56
2023-05-04T12:09:30.148Z,98584.88
2023-05-04T12:10:35.418Z,98583.97
2023-05-04T12:11:40.811Z,98579.88
2023-05-04T12:12:43.762Z,98585.63
2023-05-04T12:13:47.843Z,98582.25
2023-05-04T12:14:57.420Z,98587.53
2023-05-04T12:16:18.542Z,98587.59
2023-05-04T12:17:21.634Z,98584.72
2023-05-04T12:18:29.947Z,98585.22
2023-05-04T12:19:33.128Z,98587.19
2023-05-04T12:20:36.861Z,98588.16
2023-05-04T12:21:57.773Z,98580.75
2023-05-04T12:23:09.688Z,98577.31
2023-05-04T12:24:12.674Z,98576.59
2023-05-04T12:25:19.169Z,98582.06
2023-05-04T12:26:22.051Z,98580.44
2023-05-04T12:27:25.612Z,98577.72
2023-05-04T12:28:30.469Z,98574.53
2023-05-04T12:29:33.612Z,98581.16
2023-05-04T12:30:36.555Z,98568.34
2023-05-04T12:31:39.552Z,98582.06
2023-05-04T12:32:46.115Z,98572.50
2023-05-04T12:33:50.385Z,98574.75
2023-05-04T12:34:53.384Z,98578.34
2023-05-04T12:35:56.365Z,98574.38
2023-05-04T12:36:59.836Z,98576.34
2023-05-04T12:38:02.817Z,98568.25
2023-05-04T12:39:05.975Z,98575.13
2023-05-04T12:40:21.158Z,98578.09
2023-05-04T12:41:31.773Z,98574.75
2023-05-04T12:42:34.633Z,98568.19
2023-05-04T12:43:38.565Z,98571.97